createdAt,value
2018-09-13T00:00:20.793Z,11.80
2018-09-13T00:02:49.068Z,11.80
2018-09-13T00:05:17.338Z,11.80
2018-09-13T00:07:45.648Z,11.80
2018-09-13T00:10:13.885Z,11.70
2018-09-13T00:12:42.096Z,11.70
2018-09-13T00:15:10.365Z,11.70
2018-09-13T00:17:38.578Z,11.70
2018-09-13T00:20:06.817Z,11.70
2018-09-13T00:22:35.046Z,11.70
2018-09-13T00:25:03.325Z,11.80
2018-09-13T00:27:31.564Z,11.80
2018-09-13T00:29:59.794Z,11.80
2018-09-13T00:32:28.033Z,11.80
2018-09-13T00:34:56.272Z,11.80
2018-09-13T00:37:24.550Z,11.80
2018-09-13T00:39:52.789Z,11.90
2018-09-13T00:42:21.057Z,11.80
2018-09-13T00:44:49.276Z,11.90
2018-09-13T00:47:17.557Z,11.80
2018-09-13T00:49:45.818Z,11.80
2018-09-13T00:52:14.061Z,11.80
2018-09-13T00:54:42.297Z,11.80
2018-09-13T00:57:10.549Z,11.70
2018-09-13T00:59:38.782Z,11.70
2018-09-13T01:02:07.130Z,11.70
2018-09-13T01:04:35.349Z,11.70
2018-09-13T01:07:03.581Z,11.70
2018-09-13T01:09:31.799Z,11.60
2018-09-13T01:12:00.035Z,11.60
2018-09-13T01:14:28.268Z,11.60
2018-09-13T01:16:56.508Z,11.60
2018-09-13T01:19:24.737Z,11.50
2018-09-13T01:21:52.997Z,11.50
2018-09-13T01:24:21.274Z,11.50
2018-09-13T01:26:49.535Z,11.50
2018-09-13T01:29:17.745Z,11.50
2018-09-13T01:31:45.990Z,11.50
2018-09-13T01:34:14.206Z,11.40
2018-09-13T01:36:42.484Z,11.40
2018-09-13T01:39:11.297Z,11.40
2018-09-13T01:41:39.884Z,11.40
2018-09-13T01:44:08.161Z,11.30
2018-09-13T01:46:36.410Z,11.30
2018-09-13T01:49:04.689Z,11.20
2018-09-13T01:51:32.937Z,11.20
2018-09-13T01:54:01.180Z,11.20
2018-09-13T01:56:29.502Z,11.20
2018-09-13T01:58:57.732Z,11.20
2018-09-13T02:01:25.961Z,11.20
2018-09-13T02:04:16.669Z,11.10
2018-09-13T02:06:44.912Z,11.10
2018-09-13T02:09:13.141Z,11.10
2018-09-13T02:11:41.386Z,11.10
2018-09-13T02:14:09.630Z,11.10
2018-09-13T02:16:37.877Z,11.10
2018-09-13T02:19:06.237Z,11.00
2018-09-13T02:21:35.323Z,11.00
2018-09-13T02:24:03.537Z,11.00
2018-09-13T02:26:31.782Z,10.90
2018-09-13T02:29:00.089Z,10.90
2018-09-13T02:31:28.311Z,10.90
2018-09-13T02:33:56.598Z,10.90
2018-09-13T02:36:24.813Z,10.90
2018-09-13T02:38:53.041Z,10.90
2018-09-13T02:41:27.177Z,10.90
2018-09-13T02:43:55.453Z,10.90
2018-09-13T02:46:23.678Z,10.90
2018-09-13T02:48:52.023Z,10.90
2018-09-13T02:51:20.253Z,11.00
2018-09-13T02:53:48.552Z,11.00
2018-09-13T02:56:16.912Z,11.10
2018-09-13T02:58:45.223Z,11.10
2018-09-13T03:01:13.548Z,11.10
2018-09-13T03:03:41.842Z,11.10
2018-09-13T03:06:10.229Z,11.10
2018-09-13T03:08:38.568Z,11.10
2018-09-13T03:11:06.893Z,11.10
2018-09-13T03:13:39.009Z,11.10
2018-09-13T03:16:07.477Z,11.10
2018-09-13T03:18:35.773Z,11.20
2018-09-13T03:21:04.098Z,11.20
2018-09-13T03:23:32.443Z,11.20
2018-09-13T03:26:00.781Z,11.20
2018-09-13T03:28:29.157Z,11.20
2018-09-13T03:30:57.517Z,11.20
2018-09-13T03:33:25.890Z,11.20
2018-09-13T03:35:54.241Z,11.20
2018-09-13T03:38:22.604Z,11.20
2018-09-13T03:40:50.933Z,11.30
2018-09-13T03:43:19.264Z,11.20
2018-09-13T03:45:47.637Z,11.20
2018-09-13T03:48:16.043Z,11.20
2018-09-13T03:50:44.353Z,11.20
2018-09-13T03:53:12.678Z,11.20
2018-09-13T03:55:41.070Z,11.20
2018-09-13T04:01:03.070Z,11.20
2018-09-13T04:03:31.549Z,11.20
2018-09-13T04:05:59.805Z,11.20
2018-09-13T04:08:28.709Z,11.20
2018-09-13T04:10:57.013Z,11.20
2018-09-13T04:13:25.713Z,11.20
2018-09-13T04:15:58.491Z,11.20
2018-09-13T04:18:26.819Z,11.20
2018-09-13T04:20:55.161Z,11.20
2018-09-13T04:23:23.477Z,11.20
2018-09-13T04:26:10.545Z,11.20
2018-09-13T04:28:45.899Z,11.20
2018-09-13T04:31:14.297Z,11.20
2018-09-13T04:33:42.612Z,11.20
2018-09-13T04:36:11.145Z,11.20
2018-09-13T04:38:50.470Z,11.20
2018-09-13T04:41:18.793Z,11.20
2018-09-13T04:43:47.126Z,11.20
2018-09-13T04:46:15.450Z,11.20
2018-09-13T04:48:43.744Z,11.20
2018-09-13T04:51:12.077Z,11.20
2018-09-13T04:53:40.370Z,11.20
2018-09-13T04:56:08.725Z,11.20
2018-09-13T04:58:37.060Z,11.20
2018-09-13T05:01:05.458Z,11.10
2018-09-13T05:03:33.761Z,11.10
2018-09-13T05:06:02.096Z,11.10
2018-09-13T05:08:30.400Z,11.10
2018-09-13T05:10:58.728Z,11.00
2018-09-13T05:13:27.027Z,11.00
2018-09-13T05:15:55.385Z,11.00
2018-09-13T05:18:23.697Z,10.90
2018-09-13T05:20:52.005Z,10.90
2018-09-13T05:23:20.345Z,10.80
2018-09-13T05:25:48.684Z,10.70
2018-09-13T05:28:17.797Z,10.70
2018-09-13T05:30:46.170Z,10.70
2018-09-13T05:33:14.482Z,10.70
2018-09-13T05:35:42.808Z,10.60
2018-09-13T05:38:11.140Z,10.60
2018-09-13T05:40:39.465Z,10.60
2018-09-13T05:43:07.863Z,10.60
2018-09-13T05:45:36.241Z,10.60
2018-09-13T05:48:04.561Z,10.50
2018-09-13T05:50:32.885Z,10.50
2018-09-13T05:53:01.249Z,10.50
2018-09-13T05:55:29.562Z,10.50
2018-09-13T05:57:57.905Z,10.50
2018-09-13T06:00:26.353Z,10.50
2018-09-13T06:02:54.666Z,10.50
2018-09-13T06:05:23.010Z,10.50
2018-09-13T06:07:51.369Z,10.50
2018-09-13T06:10:19.739Z,10.50
2018-09-13T06:12:48.073Z,10.50
2018-09-13T06:15:16.424Z,10.50
2018-09-13T06:17:44.742Z,10.60
2018-09-13T06:20:13.062Z,10.50
2018-09-13T06:22:42.025Z,10.60
2018-09-13T06:25:10.365Z,10.60
2018-09-13T06:27:38.842Z,10.60
2018-09-13T06:30:07.217Z,10.60
2018-09-13T06:32:35.559Z,10.70
2018-09-13T06:35:04.040Z,10.70
2018-09-13T06:37:32.383Z,10.80
2018-09-13T06:40:00.676Z,10.80
2018-09-13T06:42:37.029Z,10.80
2018-09-13T06:45:05.506Z,10.90
2018-09-13T06:47:33.884Z,10.90
2018-09-13T06:50:02.258Z,10.90
2018-09-13T06:52:35.274Z,11.00
2018-09-13T06:55:21.965Z,11.00
2018-09-13T06:57:50.369Z,11.10
2018-09-13T07:00:18.720Z,11.10
2018-09-13T07:02:47.104Z,11.20
2018-09-13T07:05:15.439Z,11.30
2018-09-13T07:07:43.777Z,11.40
2018-09-13T07:10:12.125Z,11.40
2018-09-13T07:12:42.570Z,11.50
2018-09-13T07:15:10.961Z,11.60
2018-09-13T07:17:39.290Z,11.70
2018-09-13T07:20:07.705Z,11.90
2018-09-13T07:22:36.029Z,12.10
2018-09-13T07:25:04.510Z,12.40
2018-09-13T07:27:32.934Z,12.60
2018-09-13T07:30:01.277Z,12.90
2018-09-13T07:32:29.586Z,13.20
2018-09-13T07:34:57.901Z,13.30
2018-09-13T07:37:26.392Z,13.50
2018-09-13T07:39:54.697Z,13.60
2018-09-13T07:42:23.930Z,13.80
2018-09-13T07:44:52.217Z,14.10
2018-09-13T07:47:20.518Z,14.50
2018-09-13T07:49:49.000Z,15.00
2018-09-13T07:52:17.148Z,15.50
2018-09-13T07:54:45.513Z,16.10
2018-09-13T07:57:13.827Z,16.70
2018-09-13T07:59:42.145Z,17.40
2018-09-13T08:02:10.481Z,18.00
2018-09-13T08:04:38.825Z,18.70
2018-09-13T08:07:07.169Z,19.30
2018-09-13T08:09:35.457Z,19.80
2018-09-13T08:12:03.878Z,20.20
2018-09-13T08:14:32.081Z,20.40
2018-09-13T08:17:00.416Z,20.60
2018-09-13T08:19:28.716Z,20.80
2018-09-13T08:21:57.073Z,21.00
2018-09-13T08:24:25.439Z,21.00
2018-09-13T08:26:53.738Z,21.00
2018-09-13T08:29:22.069Z,20.80
2018-09-13T08:31:50.365Z,20.50
2018-09-13T08:34:18.717Z,20.20
2018-09-13T08:36:47.027Z,19.90
2018-09-13T08:39:15.329Z,19.80
2018-09-13T08:41:43.651Z,19.60
2018-09-13T08:44:11.945Z,19.50
2018-09-13T08:46:40.281Z,19.30
2018-09-13T08:49:08.590Z,19.10
2018-09-13T08:51:36.917Z,18.90
2018-09-13T08:54:05.265Z,18.60
2018-09-13T08:56:33.609Z,18.40
2018-09-13T08:59:01.943Z,18.20
2018-09-13T09:01:30.241Z,18.00
2018-09-13T09:03:58.565Z,17.80
2018-09-13T09:06:26.946Z,17.60
2018-09-13T09:08:55.233Z,17.40
2018-09-13T09:11:23.549Z,17.30
2018-09-13T09:13:51.888Z,17.20
2018-09-13T09:16:20.268Z,17.10
2018-09-13T09:18:48.619Z,17.20
2018-09-13T09:21:16.986Z,17.60
2018-09-13T09:23:45.298Z,18.00
2018-09-13T09:26:13.626Z,18.50
2018-09-13T09:28:41.993Z,19.00
2018-09-13T09:31:10.301Z,19.50
2018-09-13T09:33:38.613Z,20.10
2018-09-13T09:36:07.009Z,20.70
2018-09-13T09:38:35.354Z,21.10
2018-09-13T09:41:03.739Z,21.20
2018-09-13T09:43:32.083Z,21.30
2018-09-13T09:46:00.395Z,21.70
2018-09-13T09:48:28.683Z,22.00
2018-09-13T09:51:02.449Z,22.40
2018-09-13T09:53:30.753Z,22.50
2018-09-13T09:55:59.104Z,22.40
2018-09-13T09:58:27.449Z,22.00
2018-09-13T10:01:01.133Z,21.80
2018-09-13T10:03:29.486Z,22.00
2018-09-13T10:05:57.778Z,22.20
2018-09-13T10:08:26.108Z,22.60
2018-09-13T10:10:54.408Z,23.00
2018-09-13T10:13:22.728Z,23.50
2018-09-13T10:15:56.440Z,23.90
2018-09-13T10:18:30.098Z,24.40
2018-09-13T10:21:03.825Z,25.00
2018-09-13T10:23:37.534Z,25.50
2018-09-13T10:27:14.377Z,26.20
2018-09-13T10:29:47.972Z,26.70
2018-09-13T10:32:21.649Z,27.10
2018-09-13T10:34:55.293Z,26.90
2018-09-13T10:37:28.785Z,26.50
2018-09-13T10:40:02.507Z,25.80
2018-09-13T10:42:36.265Z,25.10
2018-09-13T10:45:09.933Z,24.40
2018-09-13T10:47:43.607Z,23.70
2018-09-13T10:50:34.218Z,23.10
2018-09-13T10:53:08.765Z,22.60
2018-09-13T10:55:37.109Z,22.10
2018-09-13T10:58:05.431Z,21.70
2018-09-13T11:00:33.777Z,21.40
2018-09-13T11:03:02.116Z,21.10
2018-09-13T11:05:30.517Z,20.90
2018-09-13T11:07:58.805Z,20.70
2018-09-13T11:10:27.168Z,20.50
2018-09-13T11:12:59.673Z,20.40
2018-09-13T11:15:32.298Z,20.30
2018-09-13T11:18:00.710Z,20.20
2018-09-13T11:20:28.996Z,20.20
2018-09-13T11:22:57.349Z,20.10
2018-09-13T11:25:25.943Z,20.10
2018-09-13T11:27:55.165Z,20.20
2018-09-13T11:30:23.683Z,20.80
2018-09-13T11:32:52.096Z,21.70
2018-09-13T11:35:20.431Z,22.60
2018-09-13T11:37:48.773Z,23.40
2018-09-13T11:40:17.248Z,24.10
2018-09-13T11:42:45.557Z,24.70
2018-09-13T11:45:13.937Z,25.20
2018-09-13T11:47:42.325Z,25.70
2018-09-13T11:50:10.773Z,26.20
2018-09-13T11:52:40.217Z,26.70
2018-09-13T11:55:08.590Z,27.00
2018-09-13T11:57:36.950Z,27.00
2018-09-13T12:00:05.336Z,26.70
2018-09-13T12:02:33.645Z,26.30
2018-09-13T12:05:02.186Z,25.80
2018-09-13T12:07:30.529Z,25.30
2018-09-13T12:09:58.853Z,24.80
2018-09-13T12:12:27.149Z,24.30
2018-09-13T12:14:55.501Z,24.30
2018-09-13T12:17:23.829Z,24.90
2018-09-13T12:19:52.381Z,25.70
2018-09-13T12:22:20.723Z,26.40
2018-09-13T12:24:49.113Z,27.00
2018-09-13T12:27:17.697Z,27.60
2018-09-13T12:29:46.136Z,28.00
2018-09-13T12:32:14.509Z,28.50
2018-09-13T12:34:42.869Z,28.90
2018-09-13T12:37:11.245Z,29.00
2018-09-13T12:39:39.588Z,29.20
2018-09-13T12:42:07.925Z,29.40
2018-09-13T12:44:36.477Z,29.60
2018-09-13T12:47:04.803Z,29.90
2018-09-13T12:49:33.169Z,30.20
2018-09-13T12:52:01.513Z,30.50
2018-09-13T12:54:29.912Z,30.80
2018-09-13T12:56:58.284Z,31.10
2018-09-13T12:59:26.561Z,31.00
2018-09-13T13:01:54.889Z,30.60
2018-09-13T13:04:23.197Z,30.40
2018-09-13T13:06:51.807Z,30.50
2018-09-13T13:09:20.113Z,30.80
2018-09-13T13:11:48.497Z,31.10
2018-09-13T13:14:16.849Z,31.40
2018-09-13T13:16:45.684Z,31.70
2018-09-13T13:19:13.992Z,31.90
2018-09-13T13:21:42.332Z,32.00
2018-09-13T13:24:10.641Z,32.10
2018-09-13T13:26:38.973Z,32.10
2018-09-13T13:29:07.314Z,32.10
2018-09-13T13:31:35.621Z,32.20
2018-09-13T13:34:03.953Z,32.00
2018-09-13T13:36:32.311Z,31.80
2018-09-13T13:39:00.601Z,31.80
2018-09-13T13:41:28.951Z,31.90
2018-09-13T13:43:57.309Z,31.80
2018-09-13T13:46:25.581Z,31.20
2018-09-13T13:48:53.925Z,30.40
2018-09-13T13:51:22.258Z,29.60
2018-09-13T13:53:50.580Z,28.90
2018-09-13T13:56:18.897Z,28.20
2018-09-13T13:58:47.194Z,27.50
2018-09-13T14:01:15.509Z,26.70
2018-09-13T14:03:43.841Z,25.90
2018-09-13T14:06:12.162Z,25.20
2018-09-13T14:08:40.485Z,24.60
2018-09-13T14:11:08.817Z,24.10
2018-09-13T14:13:37.154Z,23.70
2018-09-13T14:16:05.496Z,23.30
2018-09-13T14:18:33.832Z,22.90
2018-09-13T14:21:02.176Z,22.70
2018-09-13T14:23:30.497Z,22.40
2018-09-13T14:25:58.822Z,22.20
2018-09-13T14:28:27.197Z,22.00
2018-09-13T14:30:55.496Z,21.90
2018-09-13T14:33:23.869Z,21.80
2018-09-13T14:35:52.197Z,21.60
2018-09-13T14:38:20.553Z,21.50
2018-09-13T14:40:48.857Z,21.40
2018-09-13T14:43:17.185Z,21.40
2018-09-13T14:45:45.551Z,21.30
2018-09-13T14:48:13.845Z,21.20
2018-09-13T14:50:42.206Z,21.10
2018-09-13T14:53:10.538Z,21.00
2018-09-13T14:55:38.891Z,21.00
2018-09-13T14:58:07.297Z,20.90
2018-09-13T15:00:35.609Z,20.80
2018-09-13T15:03:03.945Z,20.80
2018-09-13T15:05:32.273Z,20.70
2018-09-13T15:08:00.618Z,20.70
2018-09-13T15:10:28.952Z,20.60
2018-09-13T15:12:57.374Z,20.60
2018-09-13T15:15:25.701Z,20.60
2018-09-13T15:17:54.046Z,20.50
2018-09-13T15:20:22.422Z,20.40
2018-09-13T15:22:50.765Z,20.40
2018-09-13T15:25:19.105Z,20.30
2018-09-13T15:27:47.405Z,20.10
2018-09-13T15:30:15.781Z,20.00
2018-09-13T15:32:44.133Z,19.90
2018-09-13T15:35:12.429Z,19.80
2018-09-13T15:37:40.734Z,19.70
2018-09-13T15:40:08.764Z,19.60
2018-09-13T15:42:37.097Z,19.60
2018-09-13T15:45:05.514Z,19.60
2018-09-13T15:47:33.873Z,19.60
2018-09-13T15:50:02.200Z,19.50
2018-09-13T15:52:30.596Z,19.50
2018-09-13T15:54:58.921Z,19.50
2018-09-13T15:57:27.251Z,19.40
2018-09-13T15:59:55.605Z,19.40
2018-09-13T16:02:23.956Z,19.30
2018-09-13T16:04:52.266Z,19.20
2018-09-13T16:07:20.569Z,19.10
2018-09-13T16:09:48.893Z,19.00
2018-09-13T16:12:17.244Z,18.90
2018-09-13T16:14:45.645Z,18.90
2018-09-13T16:17:14.036Z,18.80
2018-09-13T16:19:42.362Z,18.70
2018-09-13T16:22:10.714Z,18.50
2018-09-13T16:24:39.040Z,18.40
2018-09-13T16:27:07.458Z,18.30
2018-09-13T16:29:35.792Z,18.20
2018-09-13T16:32:04.174Z,18.20
2018-09-13T16:34:32.647Z,18.10
2018-09-13T16:37:06.286Z,18.00
2018-09-13T16:39:39.928Z,18.00
2018-09-13T16:42:13.536Z,17.90
2018-09-13T16:44:47.928Z,17.80
2018-09-13T16:47:28.664Z,17.70
2018-09-13T16:49:57.958Z,17.60
2018-09-13T16:52:26.608Z,17.60
2018-09-13T16:54:55.155Z,17.50
2018-09-13T16:57:23.465Z,17.50
2018-09-13T16:59:51.793Z,17.40
2018-09-13T17:02:20.265Z,17.30
2018-09-13T17:04:48.928Z,17.20
2018-09-13T17:07:17.414Z,17.20
2018-09-13T17:09:45.749Z,17.10
2018-09-13T17:12:14.061Z,17.00
2018-09-13T17:14:42.373Z,17.00
2018-09-13T17:17:10.705Z,17.00
2018-09-13T17:19:39.002Z,16.90
2018-09-13T17:22:07.524Z,16.80
2018-09-13T17:24:35.829Z,16.70
2018-09-13T17:27:04.212Z,16.60
2018-09-13T17:29:32.501Z,16.50
2018-09-13T17:32:00.889Z,16.40
2018-09-13T17:34:29.465Z,16.40
2018-09-13T17:36:57.781Z,16.30
2018-09-13T17:39:26.101Z,16.20
2018-09-13T17:41:54.436Z,16.10
2018-09-13T17:44:23.353Z,16.00
2018-09-13T17:46:51.650Z,15.90
2018-09-13T17:49:19.979Z,15.80
2018-09-13T17:51:48.889Z,15.70
2018-09-13T17:54:17.189Z,15.60
2018-09-13T17:56:45.505Z,15.50
2018-09-13T17:59:13.802Z,15.40
2018-09-13T18:01:42.129Z,15.30
2018-09-13T18:04:10.437Z,15.30
2018-09-13T18:06:38.781Z,15.20
2018-09-13T18:09:08.729Z,15.10
2018-09-13T18:11:37.214Z,15.00
2018-09-13T18:14:05.541Z,14.90
2018-09-13T18:16:33.841Z,14.80
2018-09-13T18:19:02.253Z,14.70
2018-09-13T18:21:30.559Z,14.70
2018-09-13T18:23:58.897Z,14.60
2018-09-13T18:26:27.190Z,14.50
2018-09-13T18:28:55.525Z,14.50
2018-09-13T18:31:23.861Z,14.30
2018-09-13T18:33:52.177Z,14.30
2018-09-13T18:36:20.505Z,14.20
2018-09-13T18:38:48.884Z,14.20
2018-09-13T18:41:17.277Z,14.10
2018-09-13T18:43:45.585Z,14.10
2018-09-13T18:46:13.985Z,14.00
2018-09-13T18:48:42.306Z,13.90
2018-09-13T18:51:10.625Z,13.90
2018-09-13T18:53:39.056Z,13.80
2018-09-13T18:56:07.349Z,13.80
2018-09-13T18:58:35.795Z,13.80
2018-09-13T19:01:04.067Z,13.70
2018-09-13T19:03:32.390Z,13.70
2018-09-13T19:06:00.694Z,13.70
2018-09-13T19:08:29.077Z,13.60
2018-09-13T19:10:57.447Z,13.60
2018-09-13T19:13:25.716Z,13.50
2018-09-13T19:15:54.133Z,13.50
2018-09-13T19:18:22.397Z,13.40
2018-09-13T19:20:50.724Z,13.40
2018-09-13T19:23:19.045Z,13.30
2018-09-13T19:25:47.401Z,13.30
2018-09-13T19:28:15.701Z,13.30
2018-09-13T19:30:44.053Z,13.20
2018-09-13T19:33:12.382Z,13.10
2018-09-13T19:35:40.672Z,13.10
2018-09-13T19:38:08.989Z,13.00
2018-09-13T19:40:37.305Z,13.00
2018-09-13T19:43:05.990Z,12.90
2018-09-13T19:45:34.315Z,12.80
2018-09-13T19:48:02.641Z,12.80
2018-09-13T19:50:31.027Z,12.80
2018-09-13T19:52:59.305Z,12.70
2018-09-13T19:55:27.608Z,12.60
2018-09-13T19:57:55.945Z,12.60
2018-09-13T20:00:24.261Z,12.50
2018-09-13T20:02:52.640Z,12.40
2018-09-13T20:05:20.924Z,12.40
2018-09-13T20:07:49.289Z,12.30
2018-09-13T20:10:17.585Z,12.20
2018-09-13T20:12:45.934Z,12.20
2018-09-13T20:15:14.237Z,12.10
2018-09-13T20:17:42.545Z,12.10
2018-09-13T20:20:10.889Z,12.10
2018-09-13T20:22:39.222Z,12.00
2018-09-13T20:25:07.577Z,12.00
2018-09-13T20:27:35.939Z,11.90
2018-09-13T20:30:04.531Z,11.90
2018-09-13T20:32:32.861Z,11.80
2018-09-13T20:35:01.162Z,11.80
2018-09-13T20:37:29.488Z,11.70
2018-09-13T20:39:57.817Z,11.60
2018-09-13T20:42:26.162Z,11.60
2018-09-13T20:44:54.481Z,11.50
2018-09-13T20:47:22.817Z,11.50
2018-09-13T20:49:51.167Z,11.40
2018-09-13T20:52:19.493Z,11.30
2018-09-13T20:54:47.863Z,11.30
2018-09-13T20:57:16.210Z,11.20
2018-09-13T20:59:44.465Z,11.20
2018-09-13T21:02:12.799Z,11.10
2018-09-13T21:04:41.113Z,11.10
2018-09-13T21:07:09.481Z,11.00
2018-09-13T21:09:37.781Z,11.00
2018-09-13T21:12:06.111Z,10.90
2018-09-13T21:14:34.453Z,11.00
2018-09-13T21:17:02.792Z,10.90
2018-09-13T21:19:31.109Z,10.80
2018-09-13T21:21:59.419Z,10.80
2018-09-13T21:24:27.803Z,10.80
2018-09-13T21:26:56.140Z,10.80
2018-09-13T21:29:24.456Z,10.70
2018-09-13T21:31:52.783Z,10.70
2018-09-13T21:34:21.145Z,10.70
2018-09-13T21:36:49.449Z,10.70
2018-09-13T21:39:17.765Z,10.60
2018-09-13T21:41:46.125Z,10.60
2018-09-13T21:44:14.454Z,10.50
2018-09-13T21:46:42.777Z,10.50
2018-09-13T21:49:11.104Z,10.50
2018-09-13T21:51:39.516Z,10.40
2018-09-13T21:54:07.822Z,10.40
2018-09-13T21:56:36.168Z,10.40
2018-09-13T21:59:04.535Z,10.30
2018-09-13T22:01:32.853Z,10.30
2018-09-13T22:04:01.173Z,10.20
2018-09-13T22:06:29.461Z,10.20
2018-09-13T22:08:57.773Z,10.20
2018-09-13T22:11:26.374Z,10.10
2018-09-13T22:13:54.604Z,10.10
2018-09-13T22:16:22.910Z,10.10
2018-09-13T22:18:51.252Z,10.10
2018-09-13T22:21:19.629Z,10.00
2018-09-13T22:23:47.925Z,10.00
2018-09-13T22:26:16.221Z,10.00
2018-09-13T22:28:44.553Z,10.00
2018-09-13T22:31:12.890Z,10.00
2018-09-13T22:33:41.289Z,10.00
2018-09-13T22:36:09.598Z,9.90
2018-09-13T22:38:37.921Z,9.90
2018-09-13T22:41:06.240Z,9.90
2018-09-13T22:43:39.945Z,9.80
2018-09-13T22:46:08.273Z,9.80
2018-09-13T22:48:36.561Z,9.70
2018-09-13T22:51:04.955Z,9.70
2018-09-13T22:53:33.340Z,9.70
2018-09-13T22:56:01.622Z,9.70
2018-09-13T22:58:30.003Z,9.70
2018-09-13T23:00:58.366Z,9.60
2018-09-13T23:03:26.857Z,9.60
2018-09-13T23:05:55.158Z,9.60
2018-09-13T23:08:23.492Z,9.50
2018-09-13T23:10:51.797Z,9.50
2018-09-13T23:13:20.126Z,9.50
2018-09-13T23:15:48.481Z,9.50
2018-09-13T23:18:16.832Z,9.50
2018-09-13T23:20:45.289Z,9.50
2018-09-13T23:23:13.565Z,9.40
2018-09-13T23:25:41.848Z,9.40
2018-09-13T23:28:10.205Z,9.40
2018-09-13T23:30:38.546Z,9.40
2018-09-13T23:33:06.836Z,9.40
2018-09-13T23:35:35.209Z,9.40
2018-09-13T23:38:03.545Z,9.40
2018-09-13T23:40:32.023Z,9.40
2018-09-13T23:43:00.284Z,9.40
2018-09-13T23:45:29.038Z,9.30
2018-09-13T23:47:57.790Z,9.30
2018-09-13T23:50:26.141Z,9.30
2018-09-13T23:52:54.614Z,9.20
2018-09-13T23:55:23.027Z,9.20
2018-09-13T23:57:51.357Z,9.20
